Time;durP1;ratioP1;P1;durP2;ratioP2;P2;SDS_P1;SDS_P2;PMS_P1;PMS_P2;Temp;Humidity;BMP_temperature;BMP_pressure;BME280_temperature;BME280_humidity;BME280_pressure;Samples;Min_cycle;Max_cycle;Signal;HPM_P1;HPM_P2
2022/09/30 00:01:21;;;;;;;11.13;6.27;;;9.90;99.90;;;;;;5071980;28;20173;-58
2022/09/30 00:03:48;;;;;;;8.10;5.60;;;10.20;99.90;;;;;;5072102;28;20177;-58
2022/09/30 00:06:14;;;;;;;7.17;5.40;;;10.10;99.90;;;;;;5072317;28;20195;-58
2022/09/30 00:08:40;;;;;;;8.07;5.73;;;;;;;;;;5052438;28;20250;-58
2022/09/30 00:11:13;;;;;;;10.83;5.97;;;9.90;99.90;;;;;;5052246;28;20165;-59
2022/09/30 00:13:40;;;;;;;14.43;5.70;;;;;;;;;;5052254;28;20314;-58
2022/09/30 00:16:07;;;;;;;10.50;6.40;;;9.90;99.90;;;;;;5051911;28;20761;-58
2022/09/30 00:18:33;;;;;;;11.17;6.27;;;9.80;99.90;;;;;;5052106;28;20750;-58
2022/09/30 00:20:59;;;;;;;11.67;6.30;;;9.80;99.90;;;;;;5052104;28;20195;-58
2022/09/30 00:23:25;;;;;;;10.20;6.37;;;;;;;;;;5052326;28;20213;-58
2022/09/30 00:25:56;;;;;;;9.13;6.30;;;9.60;99.90;;;;;;5066639;28;20219;-58
2022/09/30 00:28:21;;;;;;;8.73;6.07;;;9.70;99.90;;;;;;5071671;28;20190;-59
2022/09/30 00:30:47;;;;;;;9.27;6.43;;;;;;;;;;5071766;28;20172;-59
2022/09/30 00:33:13;;;;;;;13.27;6.80;;;9.60;99.90;;;;;;5071943;28;20172;-59
2022/09/30 00:35:39;;;;;;;18.57;6.93;;;;;;;;;;5071504;28;20572;-59
2022/09/30 00:38:05;;;;;;;14.30;7.63;;;9.60;99.90;;;;;;5071038;28;20177;-59
2022/09/30 00:40:31;;;;;;;11.80;6.90;;;;;;;;;;5071484;28;20286;-59
2022/09/30 00:42:58;;;;;;;9.77;6.40;;;9.80;99.90;;;;;;5071762;28;20239;-59
2022/09/30 00:45:27;;;;;;;10.47;6.90;;;9.50;99.90;;;;;;5071330;28;20202;-59
2022/09/30 00:48:18;;;;;;;11.20;7.17;;;9.90;99.90;;;;;;5071524;28;20176;-59
2022/09/30 00:50:54;;;;;;;11.60;7.13;;;9.60;99.90;;;;;;5071402;28;20236;-59
2022/09/30 00:53:19;;;;;;;12.97;6.80;;;9.70;99.90;;;;;;5071453;28;20219;-59
2022/09/30 00:55:45;;;;;;;10.27;6.60;;;;;;;;;;5071512;28;20215;-59
2022/09/30 00:58:21;;;;;;;15.30;7.17;;;9.40;99.90;;;;;;5071380;28;20180;-59
2022/09/30 01:00:50;;;;;;;9.30;5.93;;;9.50;99.90;;;;;;5071556;28;20180;-59
2022/09/30 01:03:18;;;;;;;14.20;6.10;;;9.50;99.90;;;;;;5071247;28;20647;-59
2022/09/30 01:05:43;;;;;;;7.10;5.70;;;9.60;99.90;;;;;;5071468;28;20160;-59
2022/09/30 01:08:10;;;;;;;11.43;5.80;;;9.60;99.90;;;;;;5071282;28;20178;-59
2022/09/30 01:10:36;;;;;;;7.90;6.03;;;;;;;;;;5071250;28;20179;-58
2022/09/30 01:13:02;;;;;;;7.90;5.40;;;;;;;;;;5071030;28;20223;-59
2022/09/30 01:15:49;;;;;;;12.57;6.60;;;9.30;99.90;;;;;;5058202;28;20179;-59
2022/09/30 01:18:53;;;;;;;9.60;5.73;;;9.10;99.90;;;;;;5065659;28;20184;-59
2022/09/30 01:22:00;;;;;;;10.43;6.90;;;11.20;99.90;;;;;;5067770;28;20195;-59
2022/09/30 01:24:40;;;;;;;13.43;6.50;;;9.00;99.90;;;;;;5036300;28;20184;-58
2022/09/30 01:27:31;;;;;;;16.90;7.27;;;9.00;99.90;;;;;;5070524;28;20650;-58
2022/09/30 01:30:08;;;;;;;14.33;7.73;;;9.00;99.90;;;;;;5070847;28;20218;-58
2022/09/30 01:32:52;;;;;;;15.50;7.83;;;9.00;99.90;;;;;;5070658;28;20306;-58
2022/09/30 01:35:31;;;;;;;13.40;8.10;;;8.90;99.90;;;;;;5070414;28;20182;-57
2022/09/30 01:38:15;;;;;;;16.40;8.60;;;8.80;99.90;;;;;;5070846;28;20176;-57
2022/09/30 01:41:11;;;;;;;14.07;8.50;;;9.00;99.90;;;;;;5070457;28;20187;-57
2022/09/30 01:43:37;;;;;;;20.07;9.73;;;;;;;;;;5070810;28;20220;-57
2022/09/30 01:46:29;;;;;;;16.00;9.53;;;9.10;99.90;;;;;;5070806;28;20635;-57
2022/09/30 01:49:21;;;;;;;13.80;9.20;;;9.10;99.90;;;;;;5070950;28;20267;-57
2022/09/30 01:52:12;;;;;;;13.70;8.67;;;9.10;99.90;;;;;;5074397;28;20172;-57
2022/09/30 01:54:59;;;;;;;14.43;9.03;;;9.10;99.90;;;;;;5073923;28;20173;-57
2022/09/30 01:57:30;;;;;;;15.37;9.10;;;9.20;99.90;;;;;;5074109;28;20169;-57
2022/09/30 01:59:56;;;;;;;13.43;9.03;;;;;;;;;;5074224;28;20726;-57
2022/09/30 02:02:32;;;;;;;16.80;9.40;;;9.00;99.90;;;;;;5074136;28;20291;-57
2022/09/30 02:05:08;;;;;;;14.33;8.47;;;9.20;99.90;;;;;;5074344;28;20200;-57
2022/09/30 02:07:45;;;;;;;16.43;9.07;;;9.30;99.90;;;;;;5074553;28;20718;-58
2022/09/30 02:10:25;;;;;;;11.77;7.30;;;9.20;99.90;;;;;;5074202;28;20694;-57
2022/09/30 02:13:19;;;;;;;9.60;6.77;;;9.00;99.90;;;;;;5074313;28;20196;-58
2022/09/30 02:15:51;;;;;;;12.20;6.90;;;8.90;99.90;;;;;;5068103;28;20254;-58
2022/09/30 02:18:25;;;;;;;9.23;6.47;;;8.70;99.90;;;;;;5074034;28;20627;-57
2022/09/30 02:20:59;;;;;;;10.10;5.77;;;8.50;99.90;;;;;;5065781;28;20176;-57
2022/09/30 02:23:31;;;;;;;10.27;6.43;;;8.60;99.90;;;;;;5074160;28;20750;-57
2022/09/30 02:26:08;;;;;;;15.43;7.27;;;8.50;99.90;;;;;;5074038;28;20172;-57
2022/09/30 02:28:40;;;;;;;12.03;6.83;;;8.50;99.90;;;;;;5073837;28;20692;-57
2022/09/30 02:31:09;;;;;;;17.30;7.83;;;8.50;99.90;;;;;;5073608;28;20209;-57
2022/09/30 02:33:46;;;;;;;12.03;7.57;;;8.60;99.90;;;;;;5073990;28;20195;-57
2022/09/30 02:36:23;;;;;;;15.97;8.10;;;8.70;99.90;;;;;;5074126;28;20577;-57
2022/09/30 02:38:57;;;;;;;10.80;7.50;;;8.60;99.90;;;;;;5074173;28;20196;-57
2022/09/30 02:41:25;;;;;;;15.07;7.53;;;8.60;99.90;;;;;;5056299;28;20202;-57
2022/09/30 02:43:53;;;;;;;9.47;6.83;;;8.50;99.90;;;;;;5074061;28;20180;-57
2022/09/30 02:46:34;;;;;;;11.47;7.77;;;8.50;99.90;;;;;;5074035;28;20188;-58
2022/09/30 02:49:18;;;;;;;10.90;6.47;;;8.60;99.90;;;;;;5073197;28;20711;-58
2022/09/30 02:52:18;;;;;;;9.77;6.57;;;8.30;99.90;;;;;;5073045;28;20279;-58
2022/09/30 02:54:52;;;;;;;13.83;6.80;;;8.40;99.90;;;;;;5073224;28;20271;-58
2022/09/30 02:57:32;;;;;;;10.13;6.97;;;8.40;99.90;;;;;;5073644;28;20165;-58
2022/09/30 02:59:58;;;;;;;14.50;7.13;;;8.50;99.90;;;;;;5072778;28;20172;-58
2022/09/30 03:02:24;;;;;;;11.30;7.33;;;;;;;;;;5073585;28;20208;-58
2022/09/30 03:04:50;;;;;;;10.70;6.87;;;8.30;99.90;;;;;;5072787;28;20168;-58
2022/09/30 03:07:16;;;;;;;11.50;7.40;;;;;;;;;;5073158;28;20525;-58
2022/09/30 03:09:42;;;;;;;11.43;7.40;;;8.20;99.90;;;;;;5073501;28;20190;-57
2022/09/30 03:12:21;;;;;;;36.40;7.43;;;8.20;99.90;;;;;;5073165;28;20176;-58
2022/09/30 03:15:15;;;;;;;142.17;10.83;;;8.10;99.90;;;;;;5073079;28;20190;-57
2022/09/30 03:17:41;;;;;;;61.53;9.67;;;;;;;;;;5072834;28;20224;-58
2022/09/30 03:20:36;;;;;;;33.80;8.67;;;8.00;99.90;;;;;;5072210;28;20685;-57
2022/09/30 03:23:24;;;;;;;12.67;8.10;;;8.10;99.90;;;;;;5068978;28;20216;-58
2022/09/30 03:26:15;;;;;;;12.73;7.67;;;8.00;99.90;;;;;;5052774;28;20181;-58
2022/09/30 03:28:56;;;;;;;12.83;8.37;;;7.80;99.90;;;;;;5052636;28;20184;-58
2022/09/30 03:31:22;;;;;;;12.10;7.90;;;;;;;;;;5064783;28;20181;-57
2022/09/30 03:33:56;;;;;;;13.50;8.40;;;8.00;99.90;;;;;;5072673;28;20534;-58
2022/09/30 03:36:38;;;;;;;13.30;8.93;;;7.90;99.90;;;;;;5072925;28;20168;-58
2022/09/30 03:39:06;;;;;;;12.63;8.37;;;8.10;99.90;;;;;;5072346;28;20226;-57
2022/09/30 03:41:32;;;;;;;57.87;9.40;;;;;;;;;;5072390;28;20185;-58
2022/09/30 03:44:21;;;;;;;33.87;8.80;;;7.80;99.90;;;;;;5072005;28;20265;-58
2022/09/30 03:47:07;;;;;;;12.90;7.73;;;7.80;99.90;;;;;;5072351;28;20177;-58
2022/09/30 03:49:37;;;;;;;14.87;8.23;;;7.50;99.90;;;;;;5072606;28;20653;-58
2022/09/30 03:52:08;;;;;;;12.77;7.40;;;7.70;99.90;;;;;;5072322;28;20169;-58
2022/09/30 03:54:37;;;;;;;9.33;6.90;;;;;;;;;;5072604;28;20804;-57
2022/09/30 03:57:04;;;;;;;9.50;6.90;;;;;;;;;;5072548;28;20172;-57
2022/09/30 03:59:30;;;;;;;7.87;6.20;;;;;;;;;;5072361;28;20172;-57
2022/09/30 04:01:56;;;;;;;50.30;7.93;;;7.70;99.90;;;;;;5071646;28;20215;-57
2022/09/30 04:04:22;;;;;;;32.23;7.27;;;7.60;99.90;;;;;;5072294;28;20184;-57
2022/09/30 04:06:48;;;;;;;49.83;7.87;;;;;;;;;;5071914;28;20278;-57
2022/09/30 04:09:14;;;;;;;35.70;8.27;;;7.30;99.90;;;;;;5072104;28;20521;-58
2022/09/30 04:11:40;;;;;;;82.87;8.80;;;;;;;;;;5071069;28;20176;-58
2022/09/30 04:14:06;;;;;;;28.30;8.30;;;;;;;;;;5061893;28;20179;-57
2022/09/30 04:16:32;;;;;;;16.80;7.93;;;7.00;99.90;;;;;;5071815;28;20213;-58
2022/09/30 04:18:58;;;;;;;16.13;8.17;;;;;;;;;;5071877;28;20635;-58
2022/09/30 04:21:27;;;;;;;15.10;8.63;;;7.50;99.90;;;;;;5071657;28;20230;-58
2022/09/30 04:23:54;;;;;;;13.17;8.07;;;7.40;99.90;;;;;;5071920;28;20178;-58
2022/09/30 04:26:20;;;;;;;16.07;9.17;;;;;;;;;;5071920;28;20211;-58
2022/09/30 04:28:46;;;;;;;12.97;8.67;;;;;;;;;;5071801;28;20188;-58
2022/09/30 04:31:13;;;;;;;17.07;8.43;;;7.30;99.90;;;;;;5071585;28;20177;-58
2022/09/30 04:33:39;;;;;;;14.03;7.77;;;7.00;99.90;;;;;;5071692;28;20578;-58
2022/09/30 04:36:05;;;;;;;12.37;8.67;;;6.50;99.90;;;;;;5071788;28;20184;-58
2022/09/30 04:38:31;;;;;;;12.97;8.73;;;7.40;99.90;;;;;;5071657;28;20172;-58
2022/09/30 04:40:57;;;;;;;13.20;8.53;;;;;;;;;;5053975;28;20184;-58
2022/09/30 04:43:24;;;;;;;14.57;8.50;;;7.30;99.90;;;;;;5071651;28;20273;-58
2022/09/30 04:45:54;;;;;;;13.27;8.73;;;7.70;99.90;;;;;;5071336;28;20635;-58
2022/09/30 04:48:21;;;;;;;13.77;7.97;;;;;;;;;;5071050;28;20192;-57
2022/09/30 04:50:47;;;;;;;10.47;7.50;;;7.30;99.90;;;;;;5071665;28;20176;-57
2022/09/30 04:53:13;;;;;;;12.27;8.40;;;7.10;99.90;;;;;;5071603;28;20172;-58
2022/09/30 04:55:40;;;;;;;19.23;8.50;;;7.50;99.90;;;;;;5051238;28;20184;-57
2022/09/30 04:58:06;;;;;;;10.83;7.67;;;;;;;;;;5070767;28;20177;-57
2022/09/30 05:00:32;;;;;;;10.77;7.53;;;;;;;;;;5071004;28;20175;-57
2022/09/30 05:02:58;;;;;;;12.20;7.67;;;;;;;;;;5071089;28;20215;-57
2022/09/30 05:05:24;;;;;;;12.57;7.93;;;7.40;99.90;;;;;;5070881;28;20178;-57
2022/09/30 05:07:50;;;;;;;11.27;7.77;;;7.60;99.90;;;;;;4711342;22;20306;-56
2022/09/30 05:10:16;;;;;;;10.70;7.50;;;7.60;99.90;;;;;;5067637;22;20286;-57
2022/09/30 05:12:44;;;;;;;14.27;7.73;;;;;;;;;;5069354;28;20685;-55
2022/09/30 05:15:10;;;;;;;12.30;7.63;;;7.60;99.90;;;;;;5069025;28;20183;-57
2022/09/30 05:17:36;;;;;;;11.67;7.47;;;7.40;99.90;;;;;;5070230;28;20172;-58
2022/09/30 05:20:03;;;;;;;22.60;7.83;;;7.50;99.90;;;;;;5070489;28;20187;-58
2022/09/30 05:22:29;;;;;;;11.77;7.20;;;7.50;99.90;;;;;;5071223;28;20284;-58
2022/09/30 05:24:57;;;;;;;10.40;7.30;;;7.40;99.90;;;;;;5071065;28;20681;-58
2022/09/30 05:27:23;;;;;;;11.13;7.63;;;;;;;;;;5070955;28;20185;-57
2022/09/30 05:29:49;;;;;;;16.80;7.47;;;7.40;99.90;;;;;;5067684;28;20169;-58
2022/09/30 05:32:16;;;;;;;14.60;7.63;;;;;;;;;;5069630;28;20289;-55
2022/09/30 05:34:42;;;;;;;17.13;7.53;;;;;;;;;;5070802;28;20172;-56
2022/09/30 05:37:08;;;;;;;35.20;8.00;;;7.50;99.90;;;;;;5069576;28;20574;-57
2022/09/30 05:39:34;;;;;;;27.73;7.97;;;;;;;;;;5071040;28;20183;-57
2022/09/30 05:42:00;;;;;;;20.60;7.40;;;;;;;;;;5070750;28;20222;-57
2022/09/30 05:44:26;;;;;;;23.87;7.47;;;7.50;99.90;;;;;;5070732;28;20172;-57
2022/09/30 05:46:52;;;;;;;13.77;7.10;;;7.30;99.90;;;;;;5069019;28;20188;-57
2022/09/30 05:49:18;;;;;;;19.17;7.33;;;;;;;;;;5070754;28;20176;-57
2022/09/30 05:51:43;;;;;;;13.70;7.50;;;7.30;99.90;;;;;;5069933;28;20299;-57
2022/09/30 05:54:10;;;;;;;16.93;8.00;;;7.50;99.90;;;;;;5067198;28;20271;-57
2022/09/30 05:56:37;;;;;;;14.60;7.57;;;7.60;99.90;;;;;;5070585;28;20175;-57
2022/09/30 05:59:03;;;;;;;10.27;6.93;;;7.60;99.90;;;;;;5070619;28;20179;-57
2022/09/30 06:01:29;;;;;;;13.20;8.17;;;7.70;99.90;;;;;;5070800;28;20279;-57
2022/09/30 06:03:55;;;;;;;15.67;9.23;;;7.50;99.90;;;;;;5070516;28;20667;-57
2022/09/30 06:06:21;;;;;;;13.70;8.77;;;;;;;;;;5070460;28;20251;-57
2022/09/30 06:08:47;;;;;;;16.90;9.10;;;7.70;99.90;;;;;;5069909;28;20617;-57
2022/09/30 06:11:14;;;;;;;12.07;7.83;;;7.70;99.90;;;;;;5070033;28;20188;-57
2022/09/30 06:13:41;;;;;;;12.80;8.33;;;7.80;99.90;;;;;;5069823;28;20254;-58
2022/09/30 06:16:09;;;;;;;16.27;8.73;;;7.80;99.90;;;;;;5070372;28;20161;-57
2022/09/30 06:18:35;;;;;;;11.53;8.13;;;7.80;99.90;;;;;;5070234;28;20302;-57
2022/09/30 06:21:03;;;;;;;18.77;7.67;;;7.80;99.90;;;;;;5070602;28;20271;-57
2022/09/30 06:23:31;;;;;;;13.50;8.00;;;7.90;99.90;;;;;;5070541;28;20587;-57
2022/09/30 06:25:57;;;;;;;11.83;7.37;;;7.90;99.90;;;;;;5070492;28;20176;-57
2022/09/30 06:28:23;;;;;;;11.63;7.43;;;8.10;99.90;;;;;;5069028;28;20651;-58
2022/09/30 06:30:49;;;;;;;11.90;7.63;;;9.50;99.90;;;;;;5067935;28;20316;-57
2022/09/30 06:33:16;;;;;;;14.90;7.60;;;;;;;;;;5070085;28;20244;-58
2022/09/30 06:35:42;;;;;;;12.03;7.00;;;8.10;99.90;;;;;;5071972;28;20176;-58
2022/09/30 06:38:09;;;;;;;14.33;7.23;;;7.90;99.90;;;;;;5071874;28;20191;-58
2022/09/30 06:40:35;;;;;;;15.60;6.87;;;;;;;;;;5054377;28;20257;-58
2022/09/30 06:43:02;;;;;;;12.03;7.17;;;8.10;99.90;;;;;;5059319;28;20204;-58
2022/09/30 06:45:28;;;;;;;12.97;7.23;;;8.60;99.90;;;;;;5073652;28;20543;-58
2022/09/30 06:47:58;;;;;;;17.00;7.57;;;7.90;99.90;;;;;;5073662;28;20243;-58
2022/09/30 06:50:24;;;;;;;15.70;7.10;;;;;;;;;;5073405;28;20176;-60
2022/09/30 06:52:50;;;;;;;11.90;7.27;;;8.50;99.90;;;;;;5060435;28;20566;-59
2022/09/30 06:55:16;;;;;;;13.37;7.70;;;;;;;;;;5053534;28;20250;-58
2022/09/30 06:57:43;;;;;;;11.17;7.07;;;;;;;;;;5053411;28;20166;-59
2022/09/30 07:00:10;;;;;;;13.77;7.67;;;8.50;99.90;;;;;;5057664;28;20169;-58
2022/09/30 07:02:37;;;;;;;11.50;7.37;;;;;;;;;;5059950;28;20234;-58
2022/09/30 07:05:03;;;;;;;14.87;7.23;;;;;;;;;;5052020;28;20180;-58
2022/09/30 07:07:32;;;;;;;12.07;7.33;;;9.00;99.90;;;;;;5053083;28;20172;-58
2022/09/30 07:09:58;;;;;;;18.43;7.93;;;;;;;;;;5056204;28;20233;-58
2022/09/30 07:12:24;;;;;;;15.80;7.63;;;;;;;;;;5067302;28;20208;-58
2022/09/30 07:14:50;;;;;;;13.07;7.43;;;;;;;;;;5071269;28;20173;-58
2022/09/30 07:17:16;;;;;;;15.37;7.20;;;9.30;99.90;;;;;;5052484;28;20226;-58
2022/09/30 07:19:42;;;;;;;15.83;7.30;;;9.30;99.90;;;;;;5055337;28;20723;-58
2022/09/30 07:24:52;;;;;;;15.23;7.43;;;9.40;99.90;;;;;;5068041;28;20179;-58
2022/09/30 07:27:18;;;;;;;13.03;6.80;;;9.40;99.90;;;;;;5055893;28;20591;-58
2022/09/30 07:29:44;;;;;;;20.23;7.67;;;9.50;99.90;;;;;;5073061;28;20169;-57
2022/09/30 07:32:11;;;;;;;13.87;7.93;;;;;;;;;;5072072;28;20219;-56
2022/09/30 07:34:42;;;;;;;14.70;8.50;;;;;;;;;;5072390;28;20189;-57
2022/09/30 07:37:13;;;;;;;16.30;8.10;;;9.70;99.90;;;;;;5071492;28;20255;-56
2022/09/30 07:39:44;;;;;;;16.57;8.30;;;9.70;99.90;;;;;;5072576;28;20194;-56
2022/09/30 07:42:10;;;;;;;18.97;8.70;;;9.80;99.90;;;;;;5073115;28;20168;-57
2022/09/30 07:44:42;;;;;;;12.60;8.40;;;9.90;99.90;;;;;;5060836;28;20177;-56
2022/09/30 07:47:08;;;;;;;14.17;7.53;;;;;;;;;;5056128;28;20314;-56
2022/09/30 07:49:34;;;;;;;12.23;7.30;;;10.30;99.90;;;;;;5064087;28;20654;-57
2022/09/30 07:52:01;;;;;;;10.97;5.97;;;10.60;99.90;;;;;;5052291;28;20259;-57
2022/09/30 07:54:29;;;;;;;10.70;5.80;;;10.80;99.90;;;;;;5051856;28;20197;-57
2022/09/30 07:56:55;;;;;;;7.67;4.83;;;;;;;;;;5052301;28;20173;-56
2022/09/30 07:59:21;;;;;;;12.43;4.83;;;;;;;;;;5052361;28;20165;-57
2022/09/30 08:01:48;;;;;;;9.17;4.57;;;;;;;;;;5053736;28;20188;-57
2022/09/30 08:04:16;;;;;;;11.27;4.13;;;11.80;99.90;;;;;;5052299;28;20665;-57
2022/09/30 08:06:45;;;;;;;13.97;4.70;;;11.80;99.90;;;;;;5052075;28;20198;-57
2022/09/30 08:09:12;;;;;;;10.80;4.83;;;11.90;99.90;;;;;;5056267;28;20217;-57
2022/09/30 08:11:40;;;;;;;8.50;4.50;;;12.00;99.90;;;;;;5072049;28;20199;-57
2022/09/30 08:14:06;;;;;;;8.20;4.83;;;;;;;;;;5063159;28;20177;-57
2022/09/30 08:16:32;;;;;;;4.20;2.93;;;;;;;;;;5065569;28;20172;-57
2022/09/30 08:19:00;;;;;;;4.97;2.80;;;12.20;99.90;;;;;;5071989;28;20173;-57
2022/09/30 08:21:26;;;;;;;5.73;2.77;;;12.30;99.90;;;;;;5071933;28;20176;-57
2022/09/30 08:23:53;;;;;;;12.83;3.60;;;;;;;;;;5071244;28;20172;-57
2022/09/30 08:26:19;;;;;;;6.03;3.40;;;12.70;99.90;;;;;;5068782;28;20190;-57
2022/09/30 08:28:47;;;;;;;8.83;3.20;;;12.30;99.90;;;;;;5055541;28;20209;-57
2022/09/30 08:31:16;;;;;;;6.60;3.13;;;12.50;99.90;;;;;;5071896;28;20223;-57
2022/09/30 08:33:43;;;;;;;8.37;3.97;;;;;;;;;;5069200;28;20278;-56
2022/09/30 08:36:11;;;;;;;8.43;3.93;;;12.60;99.90;;;;;;5070961;28;20187;-57
2022/09/30 08:38:37;;;;;;;10.40;3.60;;;12.60;99.90;;;;;;5071589;28;20651;-56
2022/09/30 08:41:21;;;;;;;7.43;3.00;;;11.10;99.90;;;;;;5071390;28;20172;-57
2022/09/30 08:43:51;;;;;;;11.00;3.77;;;12.60;99.90;;;;;;5068449;28;20743;-56
2022/09/30 08:46:36;;;;;;;7.13;3.33;;;12.70;99.90;;;;;;5071330;28;20180;-57
2022/09/30 08:49:10;;;;;;;7.60;3.33;;;12.80;99.90;;;;;;5071418;28;20169;-57
2022/09/30 08:51:43;;;;;;;6.47;3.37;;;12.80;99.90;;;;;;5071366;28;20183;-56
2022/09/30 08:54:14;;;;;;;7.77;3.43;;;12.80;99.90;;;;;;5067949;28;20208;-57
2022/09/30 08:56:41;;;;;;;6.60;2.73;;;12.90;99.90;;;;;;5070095;28;20719;-57
2022/09/30 08:59:19;;;;;;;14.27;2.73;;;12.90;99.90;;;;;;5060205;28;20618;-57
2022/09/30 09:01:48;;;;;;;13.43;2.63;;;13.10;99.90;;;;;;5068225;28;20563;-58
2022/09/30 09:04:14;;;;;;;6.70;2.40;;;;;;;;;;5062425;28;20181;-58
2022/09/30 09:07:04;;;;;;;11.63;2.40;;;13.10;99.90;;;;;;5051508;28;20299;-57
2022/09/30 09:09:31;;;;;;;7.83;2.40;;;;;;;;;;5066567;28;20724;-57
2022/09/30 09:12:21;;;;;;;39.30;3.60;;;12.90;99.90;;;;;;5071246;28;20200;-58
2022/09/30 09:14:55;;;;;;;5.00;1.90;;;13.20;99.90;;;;;;5059214;28;20215;-57
2022/09/30 09:17:33;;;;;;;6.37;2.17;;;13.10;99.90;;;;;;5063559;28;20187;-58
2022/09/30 09:20:07;;;;;;;21.30;2.90;;;13.10;99.90;;;;;;5066062;28;20176;-58
2022/09/30 09:22:34;;;;;;;13.13;2.47;;;13.40;99.90;;;;;;5055260;28;20632;-58
2022/09/30 09:25:01;;;;;;;16.27;2.97;;;13.30;99.90;;;;;;5051976;28;20544;-58
2022/09/30 09:27:49;;;;;;;40.43;4.13;;;13.30;99.90;;;;;;5069395;28;20168;-58
2022/09/30 09:30:19;;;;;;;5.10;1.67;;;13.50;99.90;;;;;;5058834;28;20198;-57
2022/09/30 09:32:51;;;;;;;9.37;1.80;;;13.60;99.90;;;;;;5066717;28;20291;-57
2022/09/30 09:35:40;;;;;;;8.20;1.90;;;13.60;99.90;;;;;;5069140;28;20176;-57
2022/09/30 09:38:25;;;;;;;12.60;2.27;;;13.90;99.90;;;;;;5068621;28;20177;-57
2022/09/30 09:41:32;;;;;;;3.30;1.30;;;13.90;99.90;;;;;;5070472;28;20175;-57
2022/09/30 09:44:03;;;;;;;5.57;1.60;;;14.20;99.90;;;;;;5066117;28;20173;-57
2022/09/30 09:46:34;;;;;;;8.57;1.73;;;14.20;99.90;;;;;;5056998;28;20180;-57
2022/09/30 09:49:12;;;;;;;24.33;2.53;;;14.20;99.90;;;;;;5070053;28;20168;-57
2022/09/30 09:51:45;;;;;;;2.63;1.40;;;14.30;99.90;;;;;;5070044;28;20172;-57
2022/09/30 09:54:14;;;;;;;3.70;1.23;;;14.10;99.90;;;;;;5068613;28;20176;-57
2022/09/30 09:56:40;;;;;;;11.33;1.90;;;14.20;99.90;;;;;;5068634;28;20176;-57
2022/09/30 09:59:12;;;;;;;2.80;1.30;;;15.30;99.90;;;;;;5068597;28;20191;-57
2022/09/30 10:01:43;;;;;;;4.53;1.83;;;14.10;99.90;;;;;;5068865;28;20176;-56
2022/09/30 10:04:31;;;;;;;37.70;2.93;;;14.00;99.90;;;;;;5069067;28;20242;-57
2022/09/30 10:06:58;;;;;;;6.27;1.57;;;;;;;;;;5069436;28;20181;-57
2022/09/30 10:09:36;;;;;;;48.80;4.05;;;14.30;99.90;;;;;;5068177;28;20232;-57
2022/09/30 10:12:04;;;;;;;22.23;3.05;;;13.90;99.90;;;;;;5073666;28;20295;-57
2022/09/30 10:14:33;;;;;;;9.65;2.20;;;14.10;99.90;;;;;;5074303;28;20173;-57
2022/09/30 10:17:01;;;;;;;7.83;2.13;;;14.10;99.90;;;;;;5074203;28;20264;-57
2022/09/30 10:19:29;;;;;;;59.57;4.80;;;14.20;99.90;;;;;;5074371;28;20185;-57
2022/09/30 10:22:19;;;;;;;9.90;2.00;;;14.10;99.90;;;;;;5074346;28;20226;-57
2022/09/30 10:24:45;;;;;;;6.30;1.57;;;14.00;99.90;;;;;;5069059;28;20176;-57
2022/09/30 10:27:33;;;;;;;5.10;1.50;;;14.50;99.90;;;;;;5074186;28;20185;-57
2022/09/30 10:29:59;;;;;;;9.37;1.43;;;;;;;;;;5074027;28;20172;-57
2022/09/30 10:32:25;;;;;;;3.70;1.47;;;;;;;;;;5073893;28;20212;-57
2022/09/30 10:35:00;;;;;;;7.77;1.83;;;14.80;99.90;;;;;;5073979;28;20173;-57
2022/09/30 10:37:26;;;;;;;42.38;3.38;;;14.90;99.90;;;;;;5073756;28;20188;-57
2022/09/30 10:39:56;;;;;;;20.23;2.65;;;15.00;99.90;;;;;;5074109;28;20248;-57
2022/09/30 10:42:26;;;;;;;5.47;1.35;;;15.00;99.90;;;;;;5073829;28;20217;-57
2022/09/30 10:44:56;;;;;;;16.15;1.73;;;15.10;99.90;;;;;;5073889;28;20692;-56
2022/09/30 10:47:27;;;;;;;6.95;1.70;;;15.20;99.90;;;;;;5073959;28;20233;-57
2022/09/30 10:49:53;;;;;;;7.03;2.08;;;;;;;;;;5073950;28;20172;-57
2022/09/30 10:52:23;;;;;;;5.70;1.92;;;15.30;99.90;;;;;;5073677;28;20531;-57
2022/09/30 10:54:53;;;;;;;4.53;1.70;;;15.40;99.90;;;;;;5073745;28;20180;-57
2022/09/30 10:57:20;;;;;;;7.45;1.50;;;;;;;;;;5073724;28;20172;-57
2022/09/30 10:59:46;;;;;;;9.88;1.77;;;15.20;99.90;;;;;;5074005;28;20187;-57
2022/09/30 11:02:40;;;;;;;4.68;1.48;;;15.50;99.90;;;;;;5073640;28;20650;-57
2022/09/30 11:05:16;;;;;;;4.13;1.30;;;15.30;99.90;;;;;;5073506;28;20698;-56
2022/09/30 11:07:45;;;;;;;7.13;1.60;;;15.40;99.90;;;;;;5073322;28;20183;-57
2022/09/30 11:10:37;;;;;;;6.32;1.70;;;15.40;99.90;;;;;;5073222;28;20227;-57
2022/09/30 11:13:30;;;;;;;4.63;1.42;;;15.20;99.90;;;;;;5053713;28;20274;-56
2022/09/30 11:16:16;;;;;;;6.55;1.45;;;15.30;99.90;;;;;;5073182;28;20281;-56
2022/09/30 11:19:27;;;;;;;4.80;1.60;;;15.20;99.90;;;;;;5073484;28;20176;-56
2022/09/30 11:22:00;;;;;;;8.43;1.67;;;15.20;99.90;;;;;;5044053;28;20176;-57
2022/09/30 11:24:47;;;;;;;8.02;1.70;;;15.20;99.90;;;;;;5073084;28;20179;-56
2022/09/30 11:27:51;;;;;;;10.05;1.85;;;15.20;99.90;;;;;;5071722;28;20201;-56
2022/09/30 11:30:23;;;;;;;3.65;1.10;;;15.20;99.90;;;;;;5073211;28;20669;-56
2022/09/30 11:33:13;;;;;;;5.50;1.40;;;15.10;99.90;;;;;;5072976;28;20265;-56
2022/09/30 11:35:51;;;;;;;6.85;1.88;;;15.10;99.90;;;;;;5072925;28;20176;-56
2022/09/30 11:38:22;;;;;;;11.23;1.90;;;15.00;99.90;;;;;;5072904;28;20545;-55
2022/09/30 11:41:10;;;;;;;9.82;2.35;;;14.80;99.90;;;;;;5072817;28;20164;-56
2022/09/30 11:43:51;;;;;;;5.03;1.80;;;15.00;99.90;;;;;;5072758;28;20164;-56
2022/09/30 11:46:24;;;;;;;7.37;2.00;;;14.70;99.90;;;;;;5072744;28;20172;-56
2022/09/30 11:48:56;;;;;;;9.75;2.15;;;14.60;99.90;;;;;;5072820;28;20187;-56
2022/09/30 11:51:31;;;;;;;21.80;2.97;;;16.50;99.90;;;;;;5072547;28;20614;-56
2022/09/30 11:54:22;;;;;;;8.43;2.47;;;14.50;99.90;;;;;;5072412;28;20210;-57
2022/09/30 11:56:48;;;;;;;8.03;2.23;;;;;;;;;;5072538;28;20665;-56
2022/09/30 11:59:55;;;;;;;45.67;4.07;;;14.40;99.90;;;;;;5072522;28;20210;-57
2022/09/30 12:02:36;;;;;;;10.83;2.33;;;14.20;99.90;;;;;;5072070;28;20187;-57
2022/09/30 12:05:10;;;;;;;6.93;2.20;;;14.20;99.90;;;;;;5072561;28;20188;-56
2022/09/30 12:07:44;;;;;;;6.28;2.55;;;14.20;99.90;;;;;;5072430;28;20260;-57
2022/09/30 12:10:30;;;;;;;10.20;2.37;;;14.10;99.90;;;;;;5072178;28;20216;-57
2022/09/30 12:13:02;;;;;;;5.73;2.37;;;14.00;99.90;;;;;;5072054;28;20216;-57
2022/09/30 12:15:29;;;;;;;5.77;2.50;;;13.90;99.90;;;;;;5072372;28;20172;-56
2022/09/30 12:18:05;;;;;;;6.33;1.73;;;14.00;99.90;;;;;;5070207;28;20962;-56
2022/09/30 12:20:58;;;;;;;6.87;2.67;;;14.10;99.90;;;;;;5060230;28;20180;-56
2022/09/30 12:23:38;;;;;;;10.23;2.27;;;13.90;99.90;;;;;;5071319;28;20180;-56
2022/09/30 12:26:04;;;;;;;7.10;2.37;;;;;;;;;;5071228;28;20256;-57
2022/09/30 12:31:47;;;;;;;4.60;1.87;;;14.10;99.90;;;;;;5071901;28;20180;-56
2022/09/30 12:34:32;;;;;;;9.83;2.23;;;14.00;99.90;;;;;;5071110;28;20188;-56
2022/09/30 12:37:03;;;;;;;4.63;1.87;;;13.50;99.90;;;;;;5071727;28;20638;-59
2022/09/30 12:39:52;;;;;;;5.03;1.87;;;13.80;99.90;;;;;;5070217;28;20658;-57
2022/09/30 12:42:37;;;;;;;6.87;1.43;;;13.90;99.90;;;;;;5068378;28;20172;-59
2022/09/30 12:45:18;;;;;;;7.40;1.80;;;14.10;99.90;;;;;;5059787;28;20639;-56
2022/09/30 12:47:50;;;;;;;6.73;1.47;;;14.00;99.90;;;;;;5051604;28;20168;-56
2022/09/30 12:50:20;;;;;;;8.17;1.40;;;13.90;99.90;;;;;;5051450;28;20188;-56
2022/09/30 12:52:46;;;;;;;2.60;0.77;;;;;;;;;;5051482;28;20193;-56
2022/09/30 12:55:24;;;;;;;5.03;1.43;;;14.00;99.90;;;;;;5050356;28;20185;-56
2022/09/30 12:57:51;;;;;;;6.60;1.60;;;14.00;99.90;;;;;;5071612;28;20199;-56
2022/09/30 13:00:20;;;;;;;3.70;1.30;;;13.90;99.90;;;;;;5070425;28;20173;-56
2022/09/30 13:02:53;;;;;;;5.10;1.57;;;14.00;99.90;;;;;;5070291;28;20176;-56
2022/09/30 13:05:31;;;;;;;7.50;1.77;;;14.10;99.90;;;;;;5070093;28;20200;-56
2022/09/30 13:08:02;;;;;;;5.80;1.40;;;14.00;99.90;;;;;;5070808;28;20176;-57
2022/09/30 13:10:31;;;;;;;2.53;1.10;;;13.90;99.90;;;;;;5069170;28;20212;-57
2022/09/30 13:13:22;;;;;;;3.50;1.10;;;13.90;99.90;;;;;;5070752;28;20207;-56
2022/09/30 13:15:55;;;;;;;6.77;1.53;;;13.90;99.90;;;;;;5053168;28;20674;-57
2022/09/30 13:18:21;;;;;;;4.93;1.40;;;13.90;99.90;;;;;;5051089;28;20223;-57
2022/09/30 13:20:55;;;;;;;6.10;1.50;;;13.80;99.90;;;;;;5051210;28;20197;-57
2022/09/30 13:23:52;;;;;;;4.90;1.63;;;14.00;99.90;;;;;;5054274;28;20199;-57
2022/09/30 13:26:37;;;;;;;5.77;1.73;;;13.90;99.90;;;;;;5050915;28;20174;-57
2022/09/30 13:29:05;;;;;;;5.27;1.37;;;13.90;99.90;;;;;;5056914;28;20218;-57
2022/09/30 13:31:49;;;;;;;5.73;1.50;;;13.90;99.90;;;;;;5054945;28;20265;-57
2022/09/30 13:34:32;;;;;;;3.30;1.67;;;13.90;99.90;;;;;;5066878;28;20245;-57
2022/09/30 13:37:03;;;;;;;4.57;1.50;;;13.60;99.90;;;;;;5066670;28;20214;-57
2022/09/30 13:39:55;;;;;;;3.03;1.20;;;13.80;99.90;;;;;;5052681;28;20291;-57
2022/09/30 13:42:34;;;;;;;5.90;1.20;;;13.80;99.90;;;;;;5050008;28;20227;-56